Time;durP1;ratioP1;P1;durP2;ratioP2;P2;SDS_P1;SDS_P2;PMS_P1;PMS_P2;Temp;Humidity;BMP_temperature;BMP_pressure;BME280_temperature;BME280_humidity;BME280_pressure;Samples;Min_cycle;Max_cycle;Signal;HPM_P1;HPM_P2
2024/03/20 00:02:11;;;;;;;20.30;11.93;;;9.60;99.90;;;;;;12447388;28;20140;-85
2024/03/20 00:08:12;;;;;;;19.15;11.90;;;9.50;99.90;;;;;;12440465;28;20053;-84
2024/03/20 00:14:13;;;;;;;15.23;10.43;;;9.60;99.90;;;;;;12457639;28;20144;-84
2024/03/20 00:20:14;;;;;;;17.83;9.27;;;9.70;99.90;;;;;;12465060;28;20052;-84
2024/03/20 00:26:15;;;;;;;11.38;7.63;;;10.00;99.90;;;;;;12456524;28;20054;-80
2024/03/20 00:32:16;;;;;;;12.02;7.32;;;10.40;99.90;;;;;;12461471;28;20057;-80
2024/03/20 00:38:17;;;;;;;15.63;7.70;;;10.60;99.90;;;;;;12471758;28;20081;-80
2024/03/20 00:44:18;;;;;;;14.38;7.88;;;10.80;99.90;;;;;;12458987;28;20753;-80
2024/03/20 00:50:19;;;;;;;12.70;7.13;;;10.90;99.90;;;;;;12456157;28;20091;-81
2024/03/20 00:56:20;;;;;;;14.27;7.75;;;10.90;99.90;;;;;;12458947;28;20068;-80
2024/03/20 01:02:21;;;;;;;11.43;7.00;;;11.00;99.90;;;;;;12498189;28;20141;-80
2024/03/20 01:08:22;;;;;;;14.13;7.53;;;11.00;99.90;;;;;;12519344;28;20156;-80
2024/03/20 01:14:23;;;;;;;11.45;6.90;;;11.00;99.90;;;;;;12507836;28;20705;-80
2024/03/20 01:20:24;;;;;;;12.10;7.20;;;11.20;99.90;;;;;;12522784;28;20102;-81
2024/03/20 01:26:24;;;;;;;20.40;12.88;;;11.10;99.90;;;;;;12526724;28;20114;-80
2024/03/20 01:32:27;;;;;;;19.70;11.60;;;10.80;99.90;;;;;;12516328;28;20090;-84
2024/03/20 01:38:28;;;;;;;16.75;10.82;;;10.80;99.90;;;;;;12479783;28;20049;-82
2024/03/20 01:44:28;;;;;;;18.55;10.73;;;10.60;99.90;;;;;;12505529;28;20103;-84
2024/03/20 01:50:29;;;;;;;14.63;10.05;;;10.40;99.90;;;;;;12486072;28;20057;-84
2024/03/20 01:56:33;;;;;;;14.45;9.05;;;10.30;99.90;;;;;;12507858;28;20052;-83
2024/03/20 02:02:34;;;;;;;13.70;7.90;;;10.20;99.90;;;;;;12501277;28;20060;-84
2024/03/20 02:08:35;;;;;;;15.93;7.93;;;10.30;99.90;;;;;;12487934;28;20079;-84
2024/03/20 02:14:39;;;;;;;13.02;7.38;;;10.60;99.90;;;;;;12505548;28;20481;-85
2024/03/20 02:20:40;;;;;;;13.82;7.78;;;10.80;99.90;;;;;;12491670;28;20041;-85
2024/03/20 02:26:41;;;;;;;9.50;6.40;;;10.90;99.90;;;;;;12484047;28;20505;-83
2024/03/20 02:32:42;;;;;;;13.73;9.27;;;10.90;99.90;;;;;;12510345;28;20170;-84
2024/03/20 02:38:42;;;;;;;22.15;10.30;;;10.80;99.90;;;;;;12502699;28;20718;-83
2024/03/20 02:44:43;;;;;;;16.25;11.05;;;10.50;99.90;;;;;;12510285;28;20056;-83
2024/03/20 02:50:45;;;;;;;18.00;10.88;;;10.30;99.90;;;;;;12515511;28;20099;-82
2024/03/20 02:56:46;;;;;;;19.00;10.57;;;9.90;99.90;;;;;;12512332;28;20049;-85
2024/03/20 03:02:46;;;;;;;18.35;10.35;;;9.80;99.90;;;;;;12460371;28;20053;-85
2024/03/20 03:08:47;;;;;;;16.02;9.73;;;9.60;99.90;;;;;;12478922;28;20053;-85
2024/03/20 03:14:48;;;;;;;14.30;8.77;;;9.40;99.90;;;;;;12469160;28;20391;-85
2024/03/20 03:20:49;;;;;;;14.45;9.60;;;9.40;99.90;;;;;;12459095;28;20091;-86
2024/03/20 03:26:50;;;;;;;15.15;9.60;;;9.30;99.90;;;;;;12465223;28;20132;-84
2024/03/20 03:32:51;;;;;;;17.33;9.52;;;9.30;99.90;;;;;;12461933;28;20085;-85
2024/03/20 03:38:52;;;;;;;12.65;8.02;;;9.30;99.90;;;;;;12442602;28;20045;-84
2024/03/20 03:44:53;;;;;;;14.80;8.35;;;9.20;99.90;;;;;;12443415;28;20879;-85
2024/03/20 03:50:54;;;;;;;17.10;7.85;;;9.20;99.90;;;;;;12439050;28;20413;-86
2024/03/20 03:56:56;;;;;;;13.27;8.00;;;9.30;99.90;;;;;;12464996;28;20050;-82
2024/03/20 04:02:57;;;;;;;18.60;10.63;;;9.20;99.90;;;;;;12509237;28;20060;-83
2024/03/20 04:08:58;;;;;;;14.27;8.75;;;9.10;99.90;;;;;;12471299;28;20057;-87
2024/03/20 04:14:59;;;;;;;18.80;9.07;;;9.00;99.90;;;;;;12454836;28;20136;-85
2024/03/20 04:21:00;;;;;;;13.73;8.90;;;8.80;99.90;;;;;;12459943;28;20506;-85
2024/03/20 04:27:01;;;;;;;16.05;8.50;;;8.80;99.90;;;;;;12446287;28;20505;-85
2024/03/20 04:33:02;;;;;;;12.80;7.68;;;8.80;99.90;;;;;;12452323;28;20053;-85
2024/03/20 04:39:06;;;;;;;15.32;7.53;;;8.30;99.90;;;;;;12461456;28;20049;-85
2024/03/20 04:45:11;;;;;;;16.88;7.97;;;8.20;99.90;;;;;;12474116;28;20053;-85
2024/03/20 04:51:12;;;;;;;12.77;7.30;;;8.50;99.90;;;;;;12441806;28;20509;-85
2024/03/20 04:57:13;;;;;;;15.40;7.30;;;8.60;99.90;;;;;;12479146;28;20069;-85
2024/03/20 05:03:14;;;;;;;12.57;7.32;;;8.70;99.90;;;;;;12440674;28;20061;-86
2024/03/20 05:09:14;;;;;;;11.65;7.13;;;8.70;99.90;;;;;;12446813;28;20081;-85
2024/03/20 05:15:15;;;;;;;12.48;6.75;;;8.70;99.90;;;;;;12442983;28;20057;-85
2024/03/20 05:21:16;;;;;;;11.00;6.97;;;8.90;99.90;;;;;;12446350;28;20069;-85
2024/03/20 05:27:18;;;;;;;14.23;7.50;;;8.90;99.90;;;;;;12475958;28;20525;-85
2024/03/20 05:33:19;;;;;;;12.90;6.40;;;8.90;99.90;;;;;;12435584;28;20460;-86
2024/03/20 05:39:21;;;;;;;12.73;7.65;;;9.00;99.90;;;;;;12440914;28;20049;-86
2024/03/20 05:45:22;;;;;;;13.38;6.60;;;9.00;99.90;;;;;;12441216;28;20049;-85
2024/03/20 05:51:24;;;;;;;12.65;7.85;;;9.00;99.90;;;;;;12445687;28;20057;-85
2024/03/20 05:57:25;;;;;;;14.77;8.05;;;9.00;99.90;;;;;;12453800;28;20519;-85
2024/03/20 06:03:26;;;;;;;16.83;8.70;;;9.00;99.90;;;;;;12440403;28;20133;-85
2024/03/20 06:09:31;;;;;;;17.08;9.50;;;9.10;99.90;;;;;;12473604;28;20077;-85
2024/03/20 06:15:34;;;;;;;17.50;10.43;;;9.00;99.90;;;;;;12442286;28;20069;-81
2024/03/20 06:21:35;;;;;;;15.23;9.35;;;8.90;99.90;;;;;;12461040;28;20084;-81
2024/03/20 06:27:36;;;;;;;18.02;10.40;;;9.20;99.90;;;;;;12450375;28;20054;-82
2024/03/20 06:33:38;;;;;;;15.45;10.07;;;9.10;99.90;;;;;;12449443;28;20045;-82
2024/03/20 06:39:40;;;;;;;18.50;10.38;;;9.10;99.90;;;;;;12452265;28;20045;-82
2024/03/20 06:45:47;;;;;;;16.38;10.05;;;9.20;99.90;;;;;;12464219;28;20057;-83
2024/03/20 06:51:50;;;;;;;17.17;10.20;;;9.30;99.90;;;;;;12463977;28;20052;-82
2024/03/20 06:57:51;;;;;;;15.85;9.57;;;9.60;99.90;;;;;;12473875;28;20061;-82
2024/03/20 07:03:52;;;;;;;12.98;8.07;;;9.50;99.90;;;;;;12500302;28;20440;-83
2024/03/20 07:09:52;;;;;;;13.95;8.63;;;9.70;99.90;;;;;;12516300;28;20068;-83
2024/03/20 07:15:53;;;;;;;18.30;10.07;;;9.90;99.90;;;;;;12518998;28;20549;-82
2024/03/20 07:21:54;;;;;;;13.23;8.77;;;9.90;99.90;;;;;;12502745;28;20052;-83
2024/03/20 07:27:56;;;;;;;12.82;8.13;;;10.20;99.90;;;;;;12513112;28;20552;-82
2024/03/20 07:33:57;;;;;;;13.38;8.32;;;10.50;99.90;;;;;;12470323;28;20057;-83
2024/03/20 07:39:59;;;;;;;13.43;8.75;;;10.80;99.90;;;;;;12489777;28;20049;-85
2024/03/20 07:46:00;;;;;;;15.52;9.63;;;11.00;99.90;;;;;;12487515;28;20078;-84
2024/03/20 07:52:01;;;;;;;16.98;11.10;;;11.10;99.90;;;;;;12490642;28;20048;-85
2024/03/20 07:58:02;;;;;;;18.02;11.18;;;11.20;99.90;;;;;;12490594;28;20056;-84
2024/03/20 08:04:03;;;;;;;23.48;12.95;;;11.40;99.90;;;;;;12501308;28;20061;-84
2024/03/20 08:10:07;;;;;;;17.42;11.45;;;11.50;99.90;;;;;;12481202;28;20497;-84
2024/03/20 08:16:07;;;;;;;16.73;10.90;;;11.60;99.90;;;;;;12508005;28;20045;-85
2024/03/20 08:22:08;;;;;;;17.70;11.07;;;11.80;99.90;;;;;;12495902;28;20417;-84
2024/03/20 08:28:09;;;;;;;14.95;10.73;;;12.10;99.90;;;;;;12497598;28;20965;-84
2024/03/20 08:34:10;;;;;;;16.05;10.57;;;12.30;99.90;;;;;;12534691;28;20087;-84
2024/03/20 08:40:13;;;;;;;16.00;11.63;;;12.50;99.90;;;;;;12505328;28;20049;-84
2024/03/20 08:46:14;;;;;;;18.25;11.57;;;12.60;99.90;;;;;;12517909;28;20049;-85
2024/03/20 08:52:15;;;;;;;16.23;11.35;;;12.90;99.90;;;;;;12519783;28;20049;-84
2024/03/20 08:58:16;;;;;;;16.55;11.77;;;13.20;99.90;;;;;;12499997;28;20091;-84
2024/03/20 09:04:17;;;;;;;13.50;11.05;;;13.40;99.90;;;;;;12526633;28;20045;-84
2024/03/20 09:10:18;;;;;;;12.93;11.52;;;13.60;99.90;;;;;;12505449;28;20049;-84
2024/03/20 09:16:19;;;;;;;17.08;12.60;;;13.80;99.90;;;;;;12504733;28;20512;-85
2024/03/20 09:22:20;;;;;;;13.98;11.10;;;14.10;99.90;;;;;;12512972;28;20091;-83
2024/03/20 09:28:21;;;;;;;16.20;11.95;;;14.20;99.90;;;;;;12503111;28;20092;-83
2024/03/20 09:34:22;;;;;;;14.25;10.43;;;14.30;99.90;;;;;;12500877;28;20053;-84
2024/03/20 09:40:25;;;;;;;13.45;10.07;;;14.50;99.90;;;;;;12505048;28;20409;-85
2024/03/20 09:46:26;;;;;;;12.25;9.00;;;14.80;99.90;;;;;;12507980;28;20076;-84
2024/03/20 09:52:29;;;;;;;11.40;8.90;;;15.00;1.00;;;;;;12502814;28;20051;-84
2024/03/20 09:58:30;;;;;;;11.45;7.40;;;15.30;99.90;;;;;;12480878;28;20062;-82
2024/03/20 10:04:36;;;;;;;15.98;8.57;;;15.50;99.90;;;;;;12437366;28;20056;-82
2024/03/20 10:10:37;;;;;;;10.95;8.63;;;15.60;99.90;;;;;;12458387;28;20173;-86
2024/03/20 10:16:39;;;;;;;12.07;8.48;;;15.70;99.90;;;;;;12435132;28;20103;-85
2024/03/20 10:22:40;;;;;;;12.77;8.75;;;16.00;99.90;;;;;;12445444;28;20061;-86
2024/03/20 10:28:46;;;;;;;15.48;9.80;;;16.20;99.90;;;;;;12442718;28;20061;-85
2024/03/20 10:34:48;;;;;;;13.35;8.80;;;16.50;99.90;;;;;;12460411;28;20370;-85
2024/03/20 10:40:51;;;;;;;12.05;9.07;;;16.60;99.90;;;;;;12453339;28;20056;-85
2024/03/20 10:46:54;;;;;;;13.00;9.18;;;16.70;99.90;;;;;;12444630;28;20058;-85
2024/03/20 10:52:55;;;;;;;12.82;9.05;;;16.80;99.90;;;;;;12476785;28;20045;-84
2024/03/20 10:59:02;;;;;;;15.13;9.50;;;16.30;99.90;;;;;;12457267;28;20054;-84
2024/03/20 11:05:23;;;;;;;12.73;8.48;;;16.30;99.90;;;;;;12463038;28;20053;-85
2024/03/20 11:11:30;;;;;;;12.90;9.18;;;16.30;99.90;;;;;;12461715;28;20053;-84
2024/03/20 11:17:38;;;;;;;12.00;8.77;;;16.50;99.90;;;;;;12469368;28;20045;-84
2024/03/20 11:23:42;;;;;;;10.52;8.95;;;16.60;99.90;;;;;;12477085;28;20449;-82
2024/03/20 11:29:46;;;;;;;13.93;8.60;;;16.70;99.90;;;;;;12474315;28;20061;-82
2024/03/20 11:35:48;;;;;;;10.90;8.23;;;16.90;99.90;;;;;;12428832;28;20065;-83
2024/03/20 11:41:49;;;;;;;11.52;7.20;;;16.90;99.90;;;;;;12456102;28;20063;-83
2024/03/20 11:47:49;;;;;;;10.75;7.80;;;17.10;99.90;;;;;;12452080;28;20418;-83
2024/03/20 11:53:50;;;;;;;10.07;7.75;;;16.90;99.90;;;;;;12468476;28;20128;-85
2024/03/20 11:59:52;;;;;;;11.10;7.40;;;17.00;99.90;;;;;;12485920;28;20049;-83
2024/03/20 12:06:12;;;;;;;9.07;6.72;;;17.40;99.90;;;;;;12496146;28;20064;-83
2024/03/20 12:12:13;;;;;;;10.80;6.97;;;17.90;99.90;;;;;;12499638;28;20045;-83
2024/03/20 12:18:14;;;;;;;9.38;7.15;;;17.90;99.90;;;;;;12509624;28;20042;-83
2024/03/20 12:24:15;;;;;;;10.27;7.32;;;17.90;99.90;;;;;;12532271;28;20053;-85
2024/03/20 12:30:16;;;;;;;9.63;6.40;;;17.60;99.90;;;;;;12512248;28;20071;-85
2024/03/20 12:36:18;;;;;;;8.00;6.10;;;17.60;99.90;;;;;;12494473;28;20061;-85
2024/03/20 12:42:19;;;;;;;8.52;7.13;;;17.90;99.90;;;;;;12519846;28;20057;-85
2024/03/20 12:48:20;;;;;;;6.95;5.72;;;17.50;99.90;;;;;;12518659;28;20421;-85
2024/03/20 12:54:25;;;;;;;7.43;6.03;;;17.60;99.90;;;;;;12527760;28;20060;-85
2024/03/20 13:00:27;;;;;;;7.78;5.50;;;17.70;99.90;;;;;;12509760;28;20064;-85
2024/03/20 13:06:28;;;;;;;7.93;6.22;;;17.80;99.90;;;;;;12512977;28;20106;-85
2024/03/20 13:12:29;;;;;;;7.25;5.97;;;17.80;99.90;;;;;;12527269;28;20080;-85
2024/03/20 13:18:38;;;;;;;9.07;5.72;;;17.70;99.90;;;;;;12515459;28;20049;-85
2024/03/20 13:24:39;;;;;;;7.80;5.85;;;17.60;99.90;;;;;;12524950;28;21256;-86
2024/03/20 13:30:42;;;;;;;6.78;5.97;;;17.50;99.90;;;;;;12502735;28;20057;-87
2024/03/20 13:36:52;;;;;;;8.48;5.82;;;17.30;99.90;;;;;;12488509;28;20048;-88
2024/03/20 13:43:39;;;;;;;7.95;5.43;;;17.40;99.90;;;;;;12480302;28;20040;-86
2024/03/20 13:49:19;;;;;;;6.35;4.90;;;17.50;99.90;;;;;;12517454;28;20109;-85
2024/03/20 13:55:20;;;;;;;8.75;5.30;;;17.40;99.90;;;;;;12554034;28;20104;-85
2024/03/20 14:01:21;;;;;;;9.05;5.60;;;17.20;99.90;;;;;;12563533;28;20037;-85
2024/03/20 14:07:23;;;;;;;7.15;5.60;;;17.30;99.90;;;;;;12531263;28;20064;-84
2024/03/20 14:13:24;;;;;;;9.23;5.65;;;17.20;99.90;;;;;;12510348;28;20067;-84
2024/03/20 14:19:25;;;;;;;8.82;5.07;;;17.40;99.90;;;;;;12511048;28;20500;-84
2024/03/20 14:25:26;;;;;;;7.65;5.53;;;17.60;99.90;;;;;;12529172;28;20049;-85
2024/03/20 14:31:27;;;;;;;6.93;4.88;;;17.80;99.90;;;;;;12524339;28;20049;-84
2024/03/20 14:37:28;;;;;;;7.75;5.13;;;18.00;99.90;;;;;;12509622;28;20049;-85
2024/03/20 14:43:29;;;;;;;7.30;5.32;;;18.10;99.90;;;;;;12534795;28;20045;-81
2024/03/20 14:49:30;;;;;;;7.53;5.78;;;17.90;99.90;;;;;;12552478;28;20044;-86
2024/03/20 14:55:31;;;;;;;6.55;5.43;;;17.70;99.90;;;;;;12571140;28;20055;-85
2024/03/20 15:01:32;;;;;;;7.30;5.60;;;17.70;99.90;;;;;;12561369;28;20057;-85
2024/03/20 15:07:33;;;;;;;7.78;5.97;;;17.40;99.90;;;;;;12518066;28;20057;-85
2024/03/20 15:13:34;;;;;;;8.15;5.22;;;17.30;99.90;;;;;;12533685;28;20492;-85
2024/03/20 15:19:36;;;;;;;7.85;6.25;;;17.20;99.90;;;;;;12520795;28;20048;-85
2024/03/20 15:25:37;;;;;;;8.00;5.60;;;17.50;99.90;;;;;;12514963;28;20057;-85
2024/03/20 15:31:38;;;;;;;8.20;5.30;;;17.60;99.90;;;;;;12530320;28;20045;-85
2024/03/20 15:37:39;;;;;;;6.88;5.28;;;17.60;99.90;;;;;;12529288;28;20056;-85
2024/03/20 15:43:40;;;;;;;6.18;5.32;;;17.50;99.90;;;;;;12516577;28;20111;-84
2024/03/20 15:49:41;;;;;;;6.25;5.65;;;17.50;99.90;;;;;;12527614;28;20052;-85
2024/03/20 15:55:42;;;;;;;8.70;6.05;;;17.40;99.90;;;;;;12523051;28;20068;-87
2024/03/20 16:01:43;;;;;;;6.82;5.57;;;17.30;99.90;;;;;;12516629;28;20053;-86
2024/03/20 16:07:50;;;;;;;7.70;5.72;;;17.20;99.90;;;;;;12525718;28;20398;-86
2024/03/20 16:13:51;;;;;;;7.72;6.18;;;16.90;99.90;;;;;;12504326;28;20094;-87
2024/03/20 16:19:52;;;;;;;6.75;6.05;;;16.70;99.90;;;;;;12520997;28;20052;-87
2024/03/20 16:25:53;;;;;;;8.63;6.75;;;16.50;99.90;;;;;;12517964;28;20053;-85
2024/03/20 16:31:55;;;;;;;8.45;6.93;;;16.30;99.90;;;;;;12505026;28;20057;-86
2024/03/20 16:37:55;;;;;;;8.02;6.57;;;16.20;99.90;;;;;;12510931;28;20041;-85
2024/03/20 16:43:56;;;;;;;7.43;6.10;;;16.10;99.90;;;;;;12523171;28;20045;-86
2024/03/20 16:49:57;;;;;;;7.03;6.32;;;16.00;99.90;;;;;;12509943;28;20110;-85
2024/03/20 16:55:58;;;;;;;9.45;7.07;;;15.90;99.90;;;;;;12504609;28;20049;-85
2024/03/20 17:02:05;;;;;;;9.43;7.95;;;15.90;99.90;;;;;;12506334;28;20053;-83
2024/03/20 17:08:06;;;;;;;12.68;8.95;;;15.80;99.90;;;;;;12539039;28;20056;-83
2024/03/20 17:14:08;;;;;;;8.95;8.00;;;15.50;99.90;;;;;;12521139;28;20045;-84
2024/03/20 17:20:09;;;;;;;10.55;8.27;;;15.30;99.90;;;;;;12500202;28;20493;-84
2024/03/20 17:26:10;;;;;;;177.73;66.80;;;15.20;99.90;;;;;;12504447;28;20045;-83
2024/03/20 17:32:13;;;;;;;12.65;8.75;;;15.10;99.90;;;;;;12524067;28;20084;-86
2024/03/20 17:38:14;;;;;;;8.90;7.78;;;15.10;99.90;;;;;;12503429;28;20053;-87
2024/03/20 17:44:15;;;;;;;10.65;8.70;;;15.00;99.90;;;;;;12515815;28;20048;-83
2024/03/20 17:50:16;;;;;;;10.45;8.98;;;14.90;99.90;;;;;;12507465;28;20064;-83
2024/03/20 17:56:19;;;;;;;10.13;8.70;;;14.70;99.90;;;;;;12522689;28;20055;-85
2024/03/20 18:02:20;;;;;;;10.15;8.50;;;14.60;99.90;;;;;;12456311;28;20064;-85
2024/03/20 18:08:21;;;;;;;11.77;8.40;;;14.40;99.90;;;;;;12451279;28;20064;-85
2024/03/20 18:14:22;;;;;;;10.52;8.38;;;14.20;99.90;;;;;;12446829;28;20524;-85
2024/03/20 18:20:22;;;;;;;11.32;7.72;;;14.00;99.90;;;;;;12451471;28;20056;-85
2024/03/20 18:26:24;;;;;;;9.70;8.43;;;14.00;99.90;;;;;;12451536;28;20064;-85
2024/03/20 18:32:24;;;;;;;10.38;8.25;;;13.90;99.90;;;;;;12452526;28;20072;-84
2024/03/20 18:38:25;;;;;;;12.45;9.60;;;13.80;99.90;;;;;;12453809;28;20049;-84
2024/03/20 18:44:28;;;;;;;10.55;8.15;;;13.80;99.90;;;;;;12464489;28;20469;-84
2024/03/20 18:50:29;;;;;;;11.02;8.27;;;13.70;99.90;;;;;;12445564;28;20061;-84
2024/03/20 18:56:30;;;;;;;11.32;8.35;;;13.50;99.90;;;;;;12453325;28;20060;-85
2024/03/20 19:02:31;;;;;;;10.90;8.95;;;13.40;99.90;;;;;;12471186;28;20557;-81
2024/03/20 19:08:32;;;;;;;13.85;9.65;;;13.30;99.90;;;;;;12472448;28;20050;-83
2024/03/20 19:14:33;;;;;;;13.45;10.15;;;13.20;99.90;;;;;;12445855;28;20053;-81
2024/03/20 19:20:35;;;;;;;15.88;10.25;;;13.20;99.90;;;;;;12475155;28;20076;-81
2024/03/20 19:26:35;;;;;;;13.50;10.38;;;13.10;99.90;;;;;;12457386;28;20062;-86
2024/03/20 19:32:36;;;;;;;11.55;9.85;;;13.20;99.90;;;;;;12467104;28;20061;-86
2024/03/20 19:38:37;;;;;;;13.60;9.93;;;13.20;99.90;;;;;;12474574;28;20042;-86
2024/03/20 19:44:46;;;;;;;15.02;10.63;;;13.10;99.90;;;;;;12456740;28;20077;-86
2024/03/20 19:50:50;;;;;;;12.50;10.30;;;13.10;99.90;;;;;;12455379;28;20472;-87
2024/03/20 19:56:52;;;;;;;;;;;12.90;99.90;;;;;;12476622;28;20072;-86
2024/03/20 20:02:56;;;;;;;13.05;11.02;;;12.90;99.90;;;;;;12518855;28;20597;-85
2024/03/20 20:08:57;;;;;;;17.55;11.23;;;12.80;99.90;;;;;;12529412;28;20053;-85
2024/03/20 20:14:58;;;;;;;16.77;11.77;;;12.80;99.90;;;;;;12510125;28;20053;-85
2024/03/20 20:21:00;;;;;;;16.15;12.63;;;12.70;99.90;;;;;;12506700;28;20049;-85
2024/03/20 20:27:03;;;;;;;21.05;14.35;;;12.70;99.90;;;;;;12509488;28;20060;-85
2024/03/20 20:33:04;;;;;;;15.75;12.88;;;12.60;99.90;;;;;;12510875;28;20505;-82
2024/03/20 20:39:05;;;;;;;18.90;13.98;;;12.50;99.90;;;;;;12513113;28;20044;-82
2024/03/20 20:45:07;;;;;;;18.42;13.40;;;12.50;99.90;;;;;;12527372;28;20048;-82
2024/03/20 20:51:08;;;;;;;14.52;12.52;;;12.50;99.90;;;;;;12503639;28;20049;-83
2024/03/20 20:57:09;;;;;;;17.38;13.50;;;12.50;99.90;;;;;;12527871;28;20044;-84
2024/03/20 21:22:15;;;;;;;19.25;14.93;;;12.40;99.90;;;;;;12522734;28;20051;-82
2024/03/20 21:28:16;;;;;;;18.67;14.70;;;12.40;99.90;;;;;;12518066;28;20068;-81
2024/03/20 21:34:18;;;;;;;18.88;15.13;;;12.30;99.90;;;;;;12525118;28;20532;-82
2024/03/20 21:40:24;;;;;;;18.10;15.48;;;12.00;99.90;;;;;;12532302;28;20053;-82
2024/03/20 21:46:25;;;;;;;18.73;15.70;;;11.90;99.90;;;;;;12519033;28;20056;-83
2024/03/20 21:52:26;;;;;;;20.20;15.48;;;11.90;99.90;;;;;;12520016;28;20057;-83
2024/03/20 21:58:30;;;;;;;21.52;17.10;;;11.90;99.90;;;;;;12524510;28;20484;-82
2024/03/20 22:04:31;;;;;;;22.15;16.65;;;12.00;99.90;;;;;;12519383;28;20075;-84
2024/03/20 22:10:33;;;;;;;22.42;17.50;;;12.00;99.90;;;;;;12522212;28;20087;-83
2024/03/20 22:16:38;;;;;;;20.75;15.73;;;12.10;99.90;;;;;;12526052;28;20496;-82
2024/03/20 22:22:42;;;;;;;21.15;15.60;;;12.20;99.90;;;;;;12500638;28;20081;-82
2024/03/20 22:28:42;;;;;;;22.45;16.55;;;12.20;99.90;;;;;;12525054;28;20060;-83
2024/03/20 22:34:46;;;;;;;21.65;17.35;;;12.20;99.90;;;;;;12509887;28;20044;-82
2024/03/20 22:40:54;;;;;;;23.17;17.70;;;12.10;99.90;;;;;;12522505;28;20045;-82
2024/03/20 22:46:55;;;;;;;23.48;18.05;;;12.00;99.90;;;;;;12492599;28;20045;-84
2024/03/20 22:52:56;;;;;;;25.27;18.30;;;11.90;99.90;;;;;;12500201;28;20363;-85
2024/03/20 22:58:56;;;;;;;23.33;18.08;;;11.80;99.90;;;;;;12502664;28;20095;-81
2024/03/20 23:04:59;;;;;;;27.08;19.10;;;11.70;99.90;;;;;;12502158;28;20094;-81
2024/03/20 23:11:01;;;;;;;26.15;19.08;;;11.70;99.90;;;;;;12480980;28;20410;-81
2024/03/20 23:17:02;;;;;;;23.95;18.42;;;11.70;99.90;;;;;;12503971;28;20060;-81
2024/03/20 23:23:06;;;;;;;26.38;20.80;;;11.90;99.90;;;;;;12520406;28;20582;-82
2024/03/20 23:29:07;;;;;;;26.20;20.13;;;11.90;99.90;;;;;;12492838;28;20467;-82
2024/03/20 23:35:16;;;;;;;31.20;20.38;;;11.90;99.90;;;;;;12522512;28;20789;-81
2024/03/20 23:41:17;;;;;;;28.42;21.42;;;11.90;99.90;;;;;;12514979;28;20053;-81
2024/03/20 23:47:18;;;;;;;29.33;21.52;;;11.80;99.90;;;;;;12527082;28;20053;-81
2024/03/20 23:53:19;;;;;;;29.35;20.55;;;11.80;99.90;;;;;;12530394;28;20065;-81
2024/03/20 23:59:20;;;;;;;27.55;22.02;;;11.80;99.90;;;;;;12539806;28;20107;-82
